createdAt,value
2023-04-03T00:02:29.534Z,8.66
2023-04-03T00:06:20.693Z,8.75
2023-04-03T00:10:17.895Z,8.83
2023-04-03T00:14:18.860Z,8.83
2023-04-03T00:18:16.824Z,8.85
2023-04-03T00:22:17.784Z,8.73
2023-04-03T00:26:19.529Z,8.65
2023-04-03T00:30:21.819Z,8.62
2023-04-03T00:34:21.551Z,8.57
2023-04-03T00:38:23.161Z,8.65
2023-04-03T00:42:27.793Z,8.75
2023-04-03T00:46:27.929Z,8.60
2023-04-03T00:50:20.703Z,8.39
2023-04-03T00:54:10.076Z,8.48
2023-04-03T00:57:56.420Z,8.64
2023-04-03T01:01:45.136Z,8.72
2023-04-03T01:05:32.857Z,8.40
2023-04-03T01:09:20.213Z,8.48
2023-04-03T01:13:06.717Z,8.49
2023-04-03T01:16:53.537Z,8.45
2023-04-03T01:20:40.513Z,8.47
2023-04-03T01:24:27.906Z,8.48
2023-04-03T01:28:20.082Z,8.48
2023-04-03T01:32:06.692Z,8.64
2023-04-03T01:35:59.563Z,8.63
2023-04-03T01:39:52.667Z,8.58
2023-04-03T01:43:53.535Z,8.68
2023-04-03T01:47:54.919Z,8.68
2023-04-03T01:51:39.961Z,8.65
2023-04-03T01:55:39.891Z,8.60
2023-04-03T01:59:43.011Z,8.76
2023-04-03T02:03:45.904Z,8.81
2023-04-03T02:07:46.178Z,8.84
2023-04-03T02:11:47.138Z,8.95
2023-04-03T02:15:54.616Z,9.03
2023-04-03T02:19:49.023Z,8.89
2023-04-03T02:23:41.270Z,9.01
2023-04-03T02:27:28.364Z,9.09
2023-04-03T02:31:15.036Z,9.05
2023-04-03T02:35:02.654Z,9.04
2023-04-03T02:38:50.477Z,9.08
2023-04-03T02:42:40.076Z,9.11
2023-04-03T02:46:27.054Z,8.94
2023-04-03T02:50:13.734Z,8.97
2023-04-03T02:54:01.731Z,9.08
2023-04-03T02:57:50.542Z,9.11
2023-04-03T03:01:36.876Z,8.98
2023-04-03T03:05:23.999Z,8.96
2023-04-03T03:09:11.362Z,8.99
2023-04-03T03:12:59.412Z,9.03
2023-04-03T03:16:47.794Z,9.03
2023-04-03T03:20:34.540Z,9.12
2023-04-03T03:24:21.396Z,9.02
2023-04-03T03:28:10.666Z,8.70
2023-04-03T03:32:03.722Z,8.56
2023-04-03T03:35:58.668Z,8.56
2023-04-03T03:40:05.162Z,8.70
2023-04-03T03:44:03.524Z,8.75
2023-04-03T03:48:07.068Z,8.80
2023-04-03T03:52:09.221Z,8.65
2023-04-03T03:56:10.075Z,8.62
2023-04-03T04:00:11.113Z,8.56
2023-04-03T04:04:21.582Z,8.70
2023-04-03T04:08:26.409Z,8.76
2023-04-03T04:12:27.139Z,8.74
2023-04-03T04:16:30.154Z,8.65
2023-04-03T04:20:35.804Z,8.83
2023-04-03T04:24:34.816Z,8.94
2023-04-03T04:28:38.431Z,8.99
2023-04-03T04:32:36.391Z,8.98
2023-04-03T04:36:47.754Z,9.03
2023-04-03T04:40:57.016Z,9.00
2023-04-03T04:44:56.166Z,9.18
2023-04-03T04:49:01.319Z,9.25
2023-04-03T04:53:03.198Z,9.23
2023-04-03T04:57:06.329Z,9.17
2023-04-03T05:01:06.219Z,9.13
2023-04-03T05:05:10.499Z,9.30
2023-04-03T05:09:13.147Z,9.38
2023-04-03T05:13:17.821Z,9.39
2023-04-03T05:17:18.206Z,9.46
2023-04-03T05:21:26.059Z,9.65
2023-04-03T05:25:33.580Z,9.71
2023-04-03T05:29:36.983Z,9.80
2023-04-03T05:33:36.280Z,9.86
2023-04-03T05:37:37.163Z,9.93
2023-04-03T05:41:40.757Z,10.05
2023-04-03T05:45:44.710Z,10.19
2023-04-03T05:49:48.868Z,10.40
2023-04-03T05:53:52.552Z,10.51
2023-04-03T05:57:57.119Z,10.61
2023-04-03T06:01:57.212Z,10.67
2023-04-03T06:06:01.324Z,10.76
2023-04-03T06:10:01.465Z,10.75
2023-04-03T06:14:06.460Z,10.73
2023-04-03T06:18:11.381Z,10.66
2023-04-03T06:22:14.860Z,10.72
2023-04-03T06:26:14.400Z,10.93
2023-04-03T06:30:17.542Z,10.82
2023-04-03T06:34:16.869Z,10.89
2023-04-03T06:38:20.515Z,10.94
2023-04-03T06:42:20.389Z,11.08
2023-04-03T06:46:27.573Z,11.06
2023-04-03T06:50:32.856Z,11.03
2023-04-03T06:54:36.102Z,11.04
2023-04-03T06:58:32.745Z,11.18
2023-04-03T07:02:33.756Z,11.31
2023-04-03T07:06:31.951Z,11.18
2023-04-03T07:10:33.535Z,11.20
2023-04-03T07:14:33.911Z,11.37
2023-04-03T07:18:35.670Z,11.56
2023-04-03T07:22:33.976Z,11.74
2023-04-03T07:26:34.569Z,11.88
2023-04-03T07:30:31.675Z,12.02
2023-04-03T07:34:32.693Z,11.99
2023-04-03T07:38:30.123Z,12.04
2023-04-03T07:42:30.541Z,12.15
2023-04-03T07:46:28.226Z,12.32
2023-04-03T07:50:31.080Z,12.39
2023-04-03T07:54:31.769Z,12.57
2023-04-03T07:58:32.469Z,12.89
2023-04-03T08:02:29.586Z,12.93
2023-04-03T08:06:44.969Z,12.98
2023-04-03T08:10:44.502Z,13.19
2023-04-03T08:14:46.744Z,13.34
2023-04-03T08:18:44.489Z,13.47
2023-04-03T08:22:45.300Z,13.49
2023-04-03T08:26:41.598Z,13.32
2023-04-03T08:30:45.167Z,13.38
2023-04-03T08:34:41.848Z,13.47
2023-04-03T08:38:44.678Z,13.58
2023-04-03T08:42:42.634Z,13.56
2023-04-03T08:46:44.516Z,13.56
2023-04-03T08:50:42.767Z,13.58
2023-04-03T08:54:43.391Z,13.53
2023-04-03T08:58:39.591Z,13.36
2023-04-03T09:02:39.845Z,13.29
2023-04-03T09:06:37.704Z,13.44
2023-04-03T09:10:39.345Z,13.47
2023-04-03T09:14:41.488Z,13.54
2023-04-03T09:18:43.152Z,13.42
2023-04-03T09:22:45.708Z,13.24
2023-04-03T09:26:50.688Z,13.20
2023-04-03T09:30:42.943Z,12.89
2023-04-03T09:34:36.621Z,12.97
2023-04-03T09:38:32.680Z,12.88
2023-04-03T09:42:33.294Z,12.85
2023-04-03T09:46:31.833Z,12.74
2023-04-03T09:50:32.261Z,12.75
2023-04-03T09:54:28.843Z,12.65
2023-04-03T09:58:36.136Z,12.60
2023-04-03T10:02:29.115Z,12.37
2023-04-03T10:06:15.916Z,12.28
2023-04-03T10:10:02.936Z,12.18
2023-04-03T10:13:56.240Z,12.12
2023-04-03T10:17:48.182Z,12.17
2023-04-03T10:21:40.889Z,12.12
2023-04-03T10:25:34.251Z,12.19
2023-04-03T10:29:35.260Z,12.28
2023-04-03T10:33:31.750Z,12.44
2023-04-03T10:37:33.965Z,12.34
2023-04-03T10:41:30.672Z,12.35
2023-04-03T10:45:34.770Z,12.40
2023-04-03T10:49:30.381Z,12.44
2023-04-03T10:53:26.864Z,12.55
2023-04-03T10:57:19.332Z,12.65
2023-04-03T11:01:11.826Z,12.58
2023-04-03T11:05:10.917Z,12.55
2023-04-03T11:09:12.218Z,12.63
2023-04-03T11:13:09.121Z,12.47
2023-04-03T11:17:06.960Z,12.51
2023-04-03T11:20:59.810Z,12.47
2023-04-03T11:24:57.155Z,12.49
2023-04-03T11:28:52.424Z,12.49
2023-04-03T11:32:38.818Z,12.53
2023-04-03T11:36:28.202Z,12.50
2023-04-03T11:40:17.824Z,12.56
2023-04-03T11:44:15.961Z,12.50
2023-04-03T11:48:23.279Z,12.66
2023-04-03T11:52:26.811Z,12.67
2023-04-03T11:56:20.063Z,12.65
2023-04-03T12:00:20.150Z,12.63
2023-04-03T12:04:13.935Z,12.65
2023-04-03T12:08:14.895Z,12.67
2023-04-03T12:12:12.335Z,12.80
2023-04-03T12:15:58.586Z,12.81
2023-04-03T12:19:48.287Z,12.76
2023-04-03T12:23:41.596Z,12.68
2023-04-03T12:27:27.983Z,12.59
2023-04-03T12:31:21.043Z,12.52
2023-04-03T12:35:23.985Z,12.55
2023-04-03T12:39:27.770Z,12.46
2023-04-03T12:43:31.368Z,12.56
2023-04-03T12:47:30.175Z,12.61
2023-04-03T12:51:34.009Z,12.56
2023-04-03T12:55:36.471Z,12.63
2023-04-03T12:59:32.705Z,12.55
2023-04-03T13:03:31.568Z,12.48
2023-04-03T13:07:32.831Z,12.50
2023-04-03T13:11:35.474Z,12.55
2023-04-03T13:15:35.128Z,12.48
2023-04-03T13:19:38.107Z,12.50
2023-04-03T13:23:38.235Z,12.47
2023-04-03T13:27:40.931Z,12.49
2023-04-03T13:31:39.095Z,12.52
2023-04-03T13:35:41.527Z,12.53
2023-04-03T13:39:48.435Z,12.55
2023-04-03T13:43:53.756Z,12.66
2023-04-03T13:47:57.035Z,12.82
2023-04-03T13:52:07.487Z,12.92
2023-04-03T13:56:08.225Z,12.99
2023-04-03T14:00:10.739Z,13.02
2023-04-03T14:04:23.022Z,12.87
2023-04-03T14:08:36.069Z,12.97
2023-04-03T14:12:43.227Z,12.91
2023-04-03T14:16:49.635Z,12.94
2023-04-03T14:20:50.186Z,12.86
2023-04-03T14:24:52.962Z,12.82
2023-04-03T14:28:51.060Z,12.77
2023-04-03T14:32:54.157Z,12.70
2023-04-03T14:36:52.173Z,12.72
2023-04-03T14:40:57.125Z,12.64
2023-04-03T14:44:59.016Z,12.58
2023-04-03T14:49:06.043Z,12.55
2023-04-03T14:53:11.227Z,12.62
2023-04-03T14:57:13.996Z,12.57
2023-04-03T15:01:13.188Z,12.42
2023-04-03T15:05:15.631Z,12.47
2023-04-03T15:09:15.283Z,12.54
2023-04-03T15:13:19.227Z,12.63
2023-04-03T15:17:19.341Z,12.48
2023-04-03T15:21:22.170Z,12.42
2023-04-03T15:25:23.449Z,12.42
2023-04-03T15:29:27.252Z,12.36
2023-04-03T15:33:27.236Z,12.37
2023-04-03T15:37:30.117Z,12.41
2023-04-03T15:41:29.236Z,12.42
2023-04-03T15:45:31.941Z,12.39
2023-04-03T15:49:32.123Z,12.30
2023-04-03T15:53:34.673Z,12.31
2023-04-03T16:01:40.902Z,12.19
2023-04-03T16:05:40.271Z,12.24
2023-04-03T16:09:44.271Z,12.25
2023-04-03T16:13:43.377Z,12.29
2023-04-03T16:17:47.338Z,12.29
2023-04-03T16:21:52.360Z,12.30
2023-04-03T16:25:55.282Z,12.27
2023-04-03T16:29:55.285Z,12.32
2023-04-03T16:33:58.798Z,12.34
2023-04-03T16:37:59.123Z,12.36
2023-04-03T16:42:03.302Z,12.33
2023-04-03T16:46:04.389Z,12.37
2023-04-03T16:50:04.947Z,12.28
2023-04-03T16:53:58.812Z,12.23
2023-04-03T16:57:46.266Z,12.23
2023-04-03T17:01:32.537Z,12.15
2023-04-03T17:05:18.987Z,12.12
2023-04-03T17:09:05.568Z,12.18
2023-04-03T17:12:51.780Z,12.17
2023-04-03T17:16:44.570Z,12.19
2023-04-03T17:20:42.284Z,12.02
2023-04-03T17:24:43.346Z,11.96
2023-04-03T17:28:40.481Z,12.00
2023-04-03T17:32:41.298Z,11.99
2023-04-03T17:36:38.779Z,12.03
2023-04-03T17:40:38.930Z,12.03
2023-04-03T17:44:35.497Z,11.97
2023-04-03T17:48:37.697Z,11.88
2023-04-03T17:52:34.581Z,11.82
2023-04-03T17:56:34.828Z,11.76
2023-04-03T18:00:31.611Z,11.83
2023-04-03T18:04:33.801Z,11.80
2023-04-03T18:08:30.461Z,11.74
2023-04-03T18:12:31.197Z,11.80
2023-04-03T18:16:29.189Z,11.64
2023-04-03T18:20:30.200Z,11.64
2023-04-03T18:24:27.978Z,11.56
2023-04-03T18:28:28.837Z,11.43
2023-04-03T18:32:25.786Z,11.25
2023-04-03T18:36:26.793Z,11.14
2023-04-03T18:40:28.794Z,11.10
2023-04-03T18:44:29.347Z,11.04
2023-04-03T18:48:26.537Z,10.95
2023-04-03T18:52:27.410Z,10.90
2023-04-03T18:56:23.435Z,10.82
2023-04-03T19:00:30.059Z,10.76
2023-04-03T19:04:11.522Z,10.65
2023-04-03T19:08:13.105Z,10.63
2023-04-03T19:12:13.763Z,10.63
2023-04-03T19:16:09.427Z,10.62
2023-04-03T19:20:08.480Z,10.65
2023-04-03T19:24:09.389Z,10.57
2023-04-03T19:28:08.146Z,10.56
2023-04-03T19:32:12.007Z,10.55
2023-04-03T19:36:10.846Z,10.50
2023-04-03T19:40:14.034Z,10.44
2023-04-03T19:44:10.730Z,10.35
2023-04-03T19:48:07.789Z,10.33
2023-04-03T19:52:09.105Z,10.29
2023-04-03T19:56:09.139Z,10.25
2023-04-03T20:00:05.796Z,10.19
2023-04-03T20:04:16.600Z,10.16
2023-04-03T20:08:16.675Z,10.07
2023-04-03T20:12:15.664Z,9.90
2023-04-03T20:16:12.057Z,9.76
2023-04-03T20:20:13.029Z,9.66
2023-04-03T20:24:12.018Z,9.58
2023-04-03T20:28:10.053Z,9.55
2023-04-03T20:32:10.434Z,9.56
2023-04-03T20:36:06.900Z,9.55
2023-04-03T20:40:07.048Z,9.52
2023-04-03T20:44:04.103Z,9.44
2023-04-03T20:48:04.708Z,9.29
2023-04-03T20:52:01.863Z,9.30
2023-04-03T20:56:02.530Z,9.52
2023-04-03T20:59:45.785Z,9.43
2023-04-03T21:03:44.887Z,9.40
2023-04-03T21:07:46.077Z,9.41
2023-04-03T21:11:42.816Z,9.35
2023-04-03T21:15:41.128Z,9.41
2023-04-03T21:19:36.382Z,9.21
2023-04-03T21:23:36.802Z,8.75
2023-04-03T21:27:33.884Z,8.54
2023-04-03T21:31:34.175Z,8.43
2023-04-03T21:35:30.880Z,8.35
2023-04-03T21:39:31.471Z,8.39
2023-04-03T21:43:25.717Z,8.39
2023-04-03T21:47:31.043Z,8.36
2023-04-03T21:51:27.683Z,8.44
2023-04-03T21:55:28.556Z,8.15
2023-04-03T21:59:32.087Z,8.09
2023-04-03T22:03:33.003Z,8.16
2023-04-03T22:07:26.916Z,8.30
2023-04-03T22:11:25.085Z,8.45
2023-04-03T22:15:21.828Z,8.57
2023-04-03T22:19:22.690Z,8.46
2023-04-03T22:23:18.966Z,7.94
2023-04-03T22:27:19.533Z,7.65
2023-04-03T22:31:15.825Z,7.64
2023-04-03T22:35:14.492Z,7.66
2023-04-03T22:39:15.658Z,7.70
2023-04-03T22:43:17.150Z,7.68
2023-04-03T22:47:15.827Z,7.69
2023-04-03T22:51:16.202Z,7.73
2023-04-03T22:55:19.398Z,7.77
2023-04-03T22:59:18.468Z,7.80
2023-04-03T23:03:12.743Z,7.84
2023-04-03T23:07:17.587Z,7.92
2023-04-03T23:11:13.873Z,7.96
2023-04-03T23:15:14.793Z,7.97
2023-04-03T23:19:11.985Z,8.00
2023-04-03T23:23:13.138Z,8.01
2023-04-03T23:27:07.071Z,7.91
2023-04-03T23:31:05.925Z,7.89
2023-04-03T23:35:02.005Z,7.78
2023-04-03T23:39:05.625Z,7.74
2023-04-03T23:43:03.088Z,7.72
2023-04-03T23:47:03.680Z,7.68
2023-04-03T23:51:00.130Z,7.57
2023-04-03T23:54:59.325Z,7.56
2023-04-03T23:59:00.706Z,7.51
